Kaolack, Senegal
Current Conditions -  °F | °C
As of 12:00 AM on Sunday 26 Oct 2014 (Local Time) from GOOK Reporting Station
Clear Clear  
Wind Chill: 29°   Ceiling: Unl
Heat Index: 34°   Visibility: 6mi
Dew Point: 25°   Wind: 7mph
Humidity: 79%   Direction: 280°W
Pressure: 29.88"   Gusts: NA
Location:  14.15°N, 16.1°W
Report Text: GOOK 260000Z 28006KT CAVOK 29/25 Q1012
Loading
Personal Weather Stations






























Interactive Weather Map
Tropical Storm Tracking
New forecast layout! Learn more

10-Day Weather Forecast

Advertisements
Track Severe Weather on mobile